Latest Weather Observations for Tocal

IDN60801

Issued at 10:22 pm EDT Monday 10 December 2018 (issued every 10 minutes, with the page automatically refreshed every 10 minutes)

About weather observations | Map of weather stations | Latest weather observations for NSW | Other Formats
Station Details ID: 061250 Name: TOCAL AWS Lat: -32.63 Lon: 151.59 Height: 30.0 m
Data from the previous 72 hours. | See also: Recent months at Tocal
Date/Time
EDT
Temp
°C
App
Temp
°C
Dew
Point
°C
Rel
Hum
%
Delta-T
°C
Wind Press
QNH
hPa
Press
MSL
hPa
Rain since
9am
mm
Dir  Spd
km/h
Gust
km/h
Spd
kts
Gust
kts
10/10:00pm 22.7 23.2 18.3 76 2.8 SSW 13 19 7 10 - - 0.0
10/09:30pm 23.0 24.1 18.1 74 3.1 SSW 9 11 5 6 - - 0.0
10/09:00pm 23.0 25.8 17.9 73 3.2 CALM 0 6 0 3 - - 0.0
10/08:30pm 23.6 26.3 17.8 70 3.6 CALM 0 6 0 3 - - 0.0
10/08:00pm 24.4 25.6 17.4 65 4.4 SSE 7 11 4 6 - - 0.0
10/07:30pm 25.5 26.7 16.9 59 5.3 SSE 6 7 3 4 - - 0.0
10/07:00pm 25.5 26.6 16.6 58 5.5 NNW 6 9 3 5 - - 0.0
10/06:30pm 25.7 26.3 16.8 58 5.5 SE 9 11 5 6 - - 0.0
10/06:00pm 25.9 26.2 17.0 58 5.5 SE 11 17 6 9 - - 0.0
10/05:30pm 26.6 26.7 17.4 57 5.8 ESE 13 19 7 10 - - 0.0
10/05:00pm 26.8 27.2 18.1 59 5.5 SE 13 19 7 10 - - 0.0
10/04:30pm 27.2 26.7 17.9 56 5.9 SE 17 32 9 17 - - 0.0
10/04:00pm 29.9 29.1 17.0 45 8.1 SE 17 28 9 15 - - 0.0
10/03:30pm 31.8 30.3 13.1 32 11.2 SE 13 19 7 10 - - 0.0
10/03:00pm 31.9 31.0 12.7 31 11.4 SSE 9 17 5 9 - - 0.0
10/02:30pm 31.5 30.8 14.2 35 10.5 ESE 11 19 6 10 - - 0.0
10/02:00pm 31.4 30.6 14.1 35 10.5 ENE 11 17 6 9 - - 0.0
10/01:30pm 30.1 30.0 15.0 40 9.2 E 9 15 5 8 - - 0.0
10/01:00pm 29.5 29.4 16.0 44 8.4 NNE 11 17 6 9 - - 0.0
10/12:30pm 29.4 29.8 17.2 47 7.7 SE 11 19 6 10 - - 0.0
10/12:00pm 29.1 28.5 16.6 46 7.8 ESE 15 20 8 11 - - 0.0
10/11:30am 28.0 28.3 16.9 51 6.9 ESE 11 20 6 11 - - 0.0
10/11:00am 27.2 28.2 17.7 56 6.0 ESE 9 17 5 9 - - 0.0
10/10:30am 26.8 27.8 17.8 57 5.7 S 9 13 5 7 - - 0.0
10/10:00am 25.2 25.8 17.7 63 4.7 SW 11 19 6 10 - - 0.0
10/09:30am 23.8 24.5 18.0 70 3.6 WSW 11 17 6 9 - - 0.0
10/09:00am 22.5 22.6 17.4 73 3.2 SSW 13 17 7 9 - - 0.0
10/08:30am 21.5 22.3 18.1 81 2.1 SSW 11 19 6 10 - - 0.0
10/08:00am 20.0 21.5 17.6 86 1.5 SE 6 13 3 7 - - 0.0
10/07:30am 18.0 20.3 16.7 92 0.8 CALM 0 0 0 0 - - 0.0
10/07:00am 17.3 19.4 16.3 94 0.6 CALM 0 0 0 0 - - 0.0
10/06:30am 16.5 18.3 15.5 94 0.6 CALM 0 0 0 0 - - 0.0
10/06:00am 16.4 18.1 15.3 93 0.6 CALM 0 0 0 0 - - 0.0
10/05:30am 16.4 17.7 15.1 92 0.8 W 2 6 1 3 - - 0.0
10/05:00am 16.7 17.8 15.6 93 0.6 WSW 4 7 2 4 - - 0.0
10/04:30am 16.5 17.1 15.4 93 0.6 NW 6 6 3 3 - - 0.0
10/04:00am 17.3 19.3 16.0 92 0.8 CALM 0 6 0 3 - - 0.0
10/03:30am 16.9 17.5 15.4 91 0.9 WNW 6 7 3 4 - - 0.0
10/03:00am 17.4 18.0 15.4 88 1.2 NNW 6 7 3 4 - - 0.0
10/02:30am 17.3 18.0 15.6 90 1.0 WSW 6 9 3 5 - - 0.0
10/02:00am 18.4 19.8 16.4 88 1.2 WSW 4 7 2 4 - - 0.0
10/01:30am 18.6 19.4 16.4 87 1.3 WSW 7 7 4 4 - - 0.0
10/01:00am 19.0 20.4 16.4 85 1.6 SW 4 7 2 4 - - 0.0
10/12:30am 19.1 20.2 16.5 85 1.6 WSW 6 7 3 4 - - 0.0
10/12:00am 19.6 20.5 16.6 83 1.8 SW 7 11 4 6 - - 0.0
 
Date/Time
EDT
Temp
°C
App
Temp
°C
Dew
Point
°C
Rel
Hum
%
Delta-T
°C
Wind Press
QNH
hPa
Press
MSL
hPa
Rain since
9am
mm
Dir  Spd
km/h
Gust
km/h
Spd
kts
Gust
kts
09/11:30pm 20.1 20.7 16.7 81 2.1 SW 9 11 5 6 - - 0.0
09/11:00pm 20.6 21.2 16.8 79 2.3 SW 9 11 5 6 - - 0.0
09/10:30pm 21.5 22.4 16.7 74 2.9 WSW 7 11 4 6 - - 0.0
09/10:00pm 22.2 22.5 16.9 72 3.2 S 11 13 6 7 - - 0.0
09/09:30pm 23.3 23.1 16.8 67 4.0 SSE 13 17 7 9 - - 0.0
09/09:00pm 24.3 24.5 16.8 63 4.6 S 11 15 6 8 - - 0.0
09/08:30pm 26.0 26.5 16.5 55 5.9 SE 9 11 5 6 - - 0.0
09/08:00pm 27.2 27.6 16.2 51 6.8 ENE 9 13 5 7 - - 0.0
09/07:30pm 28.2 28.5 16.1 47 7.5 ESE 9 11 5 6 - - 0.0
09/07:00pm 29.5 29.0 16.0 44 8.4 E 13 19 7 10 - - 0.0
09/06:30pm 30.6 28.4 14.3 37 9.9 ENE 19 28 10 15 - - 0.0
09/06:00pm 31.3 30.1 14.0 35 10.5 E 13 20 7 11 - - 0.0
09/05:30pm 32.0 30.3 12.3 30 11.7 SE 13 17 7 9 - - 0.0
09/05:00pm 32.8 29.9 8.3 22 13.7 SE 13 22 7 12 - - 0.0
09/04:30pm 32.7 31.2 11.8 28 12.3 SE 11 19 6 10 - - 0.0
09/04:00pm 33.1 30.8 10.4 25 13.1 SE 13 17 7 9 - - 0.0
09/03:30pm 32.6 31.0 12.8 30 11.8 SSE 13 24 7 13 - - 0.0
09/03:00pm 32.8 31.1 12.4 29 12.1 SSE 13 19 7 10 - - 0.0
09/02:30pm 32.4 30.7 12.6 30 11.8 S 13 19 7 10 - - 0.0
09/02:00pm 32.0 30.8 11.7 28 11.9 SSE 9 17 5 9 - - 0.0
09/01:30pm 31.3 30.4 13.6 34 10.7 E 11 17 6 9 - - 0.0
09/01:00pm 31.1 31.3 16.7 42 9.1 SSE 11 17 6 9 - - 0.0
09/12:30pm 30.7 30.3 16.3 42 9.0 SE 13 19 7 10 - - 0.0
09/12:00pm 29.6 29.4 16.8 46 8.0 E 13 17 7 9 - - 0.0
09/11:30am 29.0 29.5 16.5 46 7.8 SSE 9 15 5 8 - - 0.0
09/11:00am 27.5 28.4 16.1 49 7.0 NE 6 9 3 5 - - 0.0
09/10:30am 26.0 26.4 16.3 55 6.0 NE 9 11 5 6 - - 0.0
09/10:00am 24.8 26.2 16.5 60 5.1 NE 4 7 2 4 - - 0.0
09/09:30am 23.9 24.7 16.4 63 4.6 ESE 7 11 4 6 - - 0.0
09/09:00am 22.4 23.1 15.7 66 4.0 NNE 6 9 3 5 - - 0.0
09/08:30am 21.6 23.3 16.1 71 3.3 SE 2 7 1 4 - - 0.0
09/08:00am 18.9 19.8 16.0 83 1.7 NNE 6 7 3 4 - - 0.0
09/07:30am 17.2 17.8 15.2 88 1.2 NW 6 9 3 5 - - 0.0
09/07:00am 15.3 16.0 14.5 95 0.5 E 4 7 2 4 - - 0.0
09/06:30am 12.7 12.8 11.6 93 0.6 NNW 2 7 1 4 - - 0.0
09/06:00am 13.5 13.2 12.6 94 0.5 WSW 6 7 3 4 - - 0.0
09/05:30am 13.4 14.2 12.5 94 0.5 CALM 0 0 0 0 - - 0.0
09/05:00am 13.9 14.8 13.0 94 0.5 CALM 0 0 0 0 - - 0.0
09/04:30am 14.0 15.0 13.1 94 0.5 CALM 0 6 0 3 - - 0.0
09/04:00am 14.4 14.7 13.3 93 0.6 WSW 4 7 2 4 - - 0.0
09/03:30am 14.3 15.2 13.0 92 0.7 CALM 0 0 0 0 - - 0.0
09/03:00am 14.7 14.4 13.4 92 0.7 W 7 9 4 5 - - 0.0
09/02:30am 15.6 16.5 14.1 91 0.8 WNW 2 7 1 4 - - 0.0
09/02:00am 16.3 16.9 14.3 88 1.1 W 4 7 2 4 - - 0.0
09/01:30am 17.5 17.7 14.8 84 1.6 W 7 9 4 5 - - 0.0
09/01:00am 17.9 18.4 14.0 78 2.2 WNW 4 9 2 5 - - 0.0
09/12:30am 19.8 21.5 15.2 75 2.7 CALM 0 0 0 0 - - 0.0
09/12:00am 20.8 20.9 15.4 71 3.2 E 9 13 5 7 - - 0.0
 
Date/Time
EDT
Temp
°C
App
Temp
°C
Dew
Point
°C
Rel
Hum
%
Delta-T
°C
Wind Press
QNH
hPa
Press
MSL
hPa
Rain since
9am
mm
Dir  Spd
km/h
Gust
km/h
Spd
kts
Gust
kts
08/11:30pm 21.7 21.2 15.8 69 3.5 ENE 13 17 7 9 - - 0.0
08/11:00pm 22.0 21.5 15.8 68 3.7 ENE 13 19 7 10 - - 0.0
08/10:30pm 22.0 21.1 15.8 68 3.7 ENE 15 20 8 11 - - 0.0
08/10:00pm 22.7 22.2 16.0 66 4.1 ENE 13 24 7 13 - - 0.0
08/09:30pm 22.9 22.1 16.0 65 4.2 ENE 15 24 8 13 - - 0.0
08/09:00pm 23.2 22.7 16.0 64 4.4 ENE 13 19 7 10 - - 0.0
08/08:30pm 24.0 24.2 15.8 60 5.0 E 9 13 5 7 - - 0.0
08/08:00pm 25.0 24.4 15.6 56 5.7 ENE 13 17 7 9 - - 0.0
08/07:30pm 25.8 25.5 15.5 53 6.3 E 11 17 6 9 - - 0.0
08/07:00pm 26.8 26.1 15.5 50 6.9 E 13 19 7 10 - - 0.0
08/06:30pm 28.0 26.5 15.3 46 7.8 E 17 26 9 14 - - 0.0
08/06:00pm 29.1 27.7 15.6 44 8.3 E 17 30 9 16 - - 0.0
08/05:30pm 30.3 28.2 15.2 40 9.3 ESE 20 30 11 16 - - 0.0
08/05:00pm 31.4 28.5 9.6 26 12.3 E 15 22 8 12 - - 0.0
08/04:30pm 31.8 28.6 9.9 26 12.5 ENE 17 22 9 12 - - 0.0
08/04:00pm 31.7 28.2 7.4 22 13.3 NNE 15 20 8 11 - - 0.0
08/03:30pm 32.1 29.8 9.0 24 13.0 ESE 11 15 6 8 - - 0.0
08/03:00pm 31.3 28.3 7.7 23 12.9 ENE 13 24 7 13 - - 0.0
08/02:30pm 31.3 28.6 8.9 25 12.5 NNE 13 19 7 10 - - 0.0
08/02:00pm 30.3 28.7 10.3 29 11.4 N 9 15 5 8 - - 0.0
08/01:30pm 30.1 28.8 11.1 31 10.9 ENE 9 15 5 8 - - 0.0
08/01:00pm 29.1 27.5 10.3 31 10.6 E 9 15 5 8 - - 0.0
08/12:30pm 28.3 26.9 10.9 34 9.9 W 9 17 5 9 - - 0.0
08/12:00pm 27.7 26.7 10.9 35 9.5 SSE 7 9 4 5 - - 0.0
08/11:30am 27.1 26.7 12.3 39 8.6 E 6 15 3 8 - - 0.0
08/11:00am 26.6 26.0 12.3 41 8.3 SSW 7 13 4 7 - - 0.0
08/10:30am 25.5 24.6 12.7 45 7.4 NE 9 17 5 9 - - 0.0
08/10:00am 24.2 23.1 11.9 46 7.0 ENE 9 19 5 10 - - 0.0
08/09:30am 23.8 22.7 12.1 48 6.7 NE 9 13 5 7 - - 0.0
08/09:00am 22.6 21.9 12.0 51 6.0 ESE 7 11 4 6 - - 0.0
08/08:30am 21.7 21.2 12.8 57 5.1 WNW 7 11 4 6 - - 0.0
08/08:00am 19.8 19.7 12.1 61 4.3 NE 4 9 2 5 - - 0.0
08/07:30am 19.5 19.7 12.0 62 4.2 SW 2 6 1 3 - - 0.0
08/07:00am 16.9 16.4 12.6 76 2.4 SW 7 9 4 5 - - 0.0
08/06:30am 13.6 12.9 11.5 87 1.1 WNW 6 7 3 4 - - 0.0
08/06:00am 13.4 12.4 11.1 86 1.2 WNW 7 9 4 5 - - 0.0
08/05:30am 14.2 13.2 11.0 81 1.7 WNW 7 7 4 4 - - 0.0
08/05:00am 16.3 16.6 12.3 77 2.2 W 2 6 1 3 - - 0.0
08/04:30am 16.6 15.9 11.5 72 2.8 WSW 6 7 3 4 - - 0.0
08/04:00am 18.1 18.1 12.3 69 3.2 NNE 4 11 2 6 - - 0.0
08/03:30am 18.2 17.2 12.2 68 3.3 NE 9 13 5 7 - - 0.0
08/03:00am 18.5 16.4 12.3 67 3.4 NE 15 19 8 10 - - 0.0
08/02:30am 18.8 17.1 12.3 66 3.6 NE 13 20 7 11 - - 0.0
08/02:00am 19.0 16.2 12.7 67 3.5 NE 19 32 10 17 - - 0.0
08/01:30am 19.0 16.2 12.5 66 3.6 NE 19 30 10 16 - - 0.0
08/01:00am 19.2 17.3 12.9 67 3.6 ENE 15 26 8 14 - - 0.0
08/12:30am 19.5 18.0 13.2 67 3.6 ENE 13 26 7 14 - - 0.0
08/12:00am 19.8 17.5 13.0 65 3.9 ENE 17 28 9 15 - - 0.0
 
Date/Time
EDT
Temp
°C
App
Temp
°C
Dew
Point
°C
Rel
Hum
%
Delta-T
°C
Wind Press
QNH
hPa
Press
MSL
hPa
Rain since
9am
mm
Dir  Spd
km/h
Gust
km/h
Spd
kts
Gust
kts
07/11:30pm 20.0 17.4 13.2 65 3.9 ENE 19 28 10 15 - - 0.0
07/11:00pm 20.2 18.0 13.2 64 4.0 ENE 17 28 9 15 - - 0.0
07/10:30pm 20.5 17.7 13.2 63 4.2 NE 20 32 11 17 - - 0.0

Other Formats:

Comma delimited format used in spreadsheet applications
http://www.bom.gov.au/fwo/IDN60801/IDN60801.94775.axf

JavaScript Object Notation format (JSON) in row-major order
http://www.bom.gov.au/fwo/IDN60801/IDN60801.94775.json